sensor_id;sensor_type;location;lat;lon;timestamp;P1;durP1;ratioP1;P2;durP2;ratioP2
15655;SDS011;7928;43.614;1.456;2023-03-01T00:00:54;8.77;;;7.00;;
15655;SDS011;7928;43.614;1.456;2023-03-01T00:03:26;10.50;;;6.70;;
15655;SDS011;7928;43.614;1.456;2023-03-01T00:05:53;8.63;;;6.43;;
15655;SDS011;7928;43.614;1.456;2023-03-01T00:08:20;11.00;;;7.70;;
15655;SDS011;7928;43.614;1.456;2023-03-01T00:10:49;9.83;;;7.17;;
15655;SDS011;7928;43.614;1.456;2023-03-01T00:13:25;10.33;;;6.50;;
15655;SDS011;7928;43.614;1.456;2023-03-01T00:15:52;7.77;;;6.77;;
15655;SDS011;7928;43.614;1.456;2023-03-01T00:18:19;11.97;;;7.00;;
15655;SDS011;7928;43.614;1.456;2023-03-01T00:20:49;10.57;;;6.83;;
15655;SDS011;7928;43.614;1.456;2023-03-01T00:23:16;7.57;;;5.73;;
15655;SDS011;7928;43.614;1.456;2023-03-01T00:25:43;7.80;;;6.60;;
15655;SDS011;7928;43.614;1.456;2023-03-01T00:28:12;8.97;;;7.00;;
15655;SDS011;7928;43.614;1.456;2023-03-01T00:30:39;9.77;;;7.17;;
15655;SDS011;7928;43.614;1.456;2023-03-01T00:33:06;8.90;;;6.63;;
15655;SDS011;7928;43.614;1.456;2023-03-01T00:35:33;8.20;;;6.10;;
15655;SDS011;7928;43.614;1.456;2023-03-01T00:38:01;9.00;;;6.50;;
15655;SDS011;7928;43.614;1.456;2023-03-01T00:40:29;11.00;;;7.33;;
15655;SDS011;7928;43.614;1.456;2023-03-01T00:42:58;9.87;;;7.57;;
15655;SDS011;7928;43.614;1.456;2023-03-01T00:45:27;10.70;;;7.40;;
15655;SDS011;7928;43.614;1.456;2023-03-01T00:47:54;11.47;;;6.97;;
15655;SDS011;7928;43.614;1.456;2023-03-01T00:50:21;11.43;;;7.60;;
15655;SDS011;7928;43.614;1.456;2023-03-01T00:52:51;9.60;;;7.27;;
15655;SDS011;7928;43.614;1.456;2023-03-01T00:55:19;11.27;;;8.37;;
15655;SDS011;7928;43.614;1.456;2023-03-01T00:57:46;10.10;;;7.17;;
15655;SDS011;7928;43.614;1.456;2023-03-01T01:00:14;10.77;;;7.13;;
15655;SDS011;7928;43.614;1.456;2023-03-01T01:02:42;9.13;;;7.20;;
15655;SDS011;7928;43.614;1.456;2023-03-01T01:05:10;8.97;;;6.77;;
15655;SDS011;7928;43.614;1.456;2023-03-01T01:07:37;9.30;;;7.10;;
15655;SDS011;7928;43.614;1.456;2023-03-01T01:10:05;9.63;;;7.33;;
15655;SDS011;7928;43.614;1.456;2023-03-01T01:12:33;9.57;;;7.20;;
15655;SDS011;7928;43.614;1.456;2023-03-01T01:15:00;11.17;;;6.83;;
15655;SDS011;7928;43.614;1.456;2023-03-01T01:17:27;9.53;;;6.93;;
15655;SDS011;7928;43.614;1.456;2023-03-01T01:19:55;9.10;;;6.53;;
15655;SDS011;7928;43.614;1.456;2023-03-01T01:22:22;10.63;;;7.07;;
15655;SDS011;7928;43.614;1.456;2023-03-01T01:24:49;9.10;;;7.03;;
15655;SDS011;7928;43.614;1.456;2023-03-01T01:27:16;11.37;;;7.23;;
15655;SDS011;7928;43.614;1.456;2023-03-01T01:29:43;10.33;;;6.77;;
15655;SDS011;7928;43.614;1.456;2023-03-01T01:32:10;11.70;;;7.90;;
15655;SDS011;7928;43.614;1.456;2023-03-01T01:34:37;9.90;;;7.37;;
15655;SDS011;7928;43.614;1.456;2023-03-01T01:37:07;9.73;;;7.53;;
15655;SDS011;7928;43.614;1.456;2023-03-01T01:39:34;8.73;;;6.77;;
15655;SDS011;7928;43.614;1.456;2023-03-01T01:42:01;8.83;;;7.07;;
15655;SDS011;7928;43.614;1.456;2023-03-01T01:44:29;10.33;;;6.33;;
15655;SDS011;7928;43.614;1.456;2023-03-01T01:47:06;12.00;;;7.90;;
15655;SDS011;7928;43.614;1.456;2023-03-01T01:49:40;9.73;;;6.37;;
15655;SDS011;7928;43.614;1.456;2023-03-01T01:52:14;8.73;;;6.57;;
15655;SDS011;7928;43.614;1.456;2023-03-01T01:54:46;10.10;;;7.07;;
15655;SDS011;7928;43.614;1.456;2023-03-01T01:57:20;10.23;;;7.17;;
15655;SDS011;7928;43.614;1.456;2023-03-01T01:59:50;9.63;;;7.20;;
15655;SDS011;7928;43.614;1.456;2023-03-01T02:02:20;9.00;;;6.97;;
15655;SDS011;7928;43.614;1.456;2023-03-01T02:04:48;10.50;;;7.23;;
15655;SDS011;7928;43.614;1.456;2023-03-01T02:07:20;8.17;;;6.73;;
15655;SDS011;7928;43.614;1.456;2023-03-01T02:09:50;11.30;;;7.33;;
15655;SDS011;7928;43.614;1.456;2023-03-01T02:12:19;9.77;;;7.30;;
15655;SDS011;7928;43.614;1.456;2023-03-01T02:14:49;12.90;;;7.63;;
15655;SDS011;7928;43.614;1.456;2023-03-01T02:17:16;10.03;;;7.33;;
15655;SDS011;7928;43.614;1.456;2023-03-01T02:19:47;11.03;;;7.37;;
15655;SDS011;7928;43.614;1.456;2023-03-01T02:22:28;12.53;;;7.23;;
15655;SDS011;7928;43.614;1.456;2023-03-01T02:25:00;11.47;;;8.30;;
15655;SDS011;7928;43.614;1.456;2023-03-01T02:27:38;10.83;;;8.47;;
15655;SDS011;7928;43.614;1.456;2023-03-01T02:30:15;10.37;;;7.23;;
15655;SDS011;7928;43.614;1.456;2023-03-01T02:32:42;10.00;;;7.40;;
15655;SDS011;7928;43.614;1.456;2023-03-01T02:35:09;12.83;;;8.03;;
15655;SDS011;7928;43.614;1.456;2023-03-01T02:37:39;10.97;;;7.83;;
15655;SDS011;7928;43.614;1.456;2023-03-01T02:40:08;10.53;;;8.30;;
15655;SDS011;7928;43.614;1.456;2023-03-01T02:42:39;12.20;;;8.47;;
15655;SDS011;7928;43.614;1.456;2023-03-01T02:45:11;12.57;;;8.40;;
15655;SDS011;7928;43.614;1.456;2023-03-01T02:47:40;13.03;;;8.57;;
15655;SDS011;7928;43.614;1.456;2023-03-01T02:50:25;13.27;;;9.00;;
15655;SDS011;7928;43.614;1.456;2023-03-01T02:53:21;10.50;;;8.13;;
15655;SDS011;7928;43.614;1.456;2023-03-01T02:55:54;9.83;;;7.80;;
15655;SDS011;7928;43.614;1.456;2023-03-01T02:58:21;8.93;;;6.50;;
15655;SDS011;7928;43.614;1.456;2023-03-01T03:00:48;11.17;;;7.33;;
15655;SDS011;7928;43.614;1.456;2023-03-01T03:03:17;12.60;;;7.97;;
15655;SDS011;7928;43.614;1.456;2023-03-01T03:05:46;9.83;;;7.40;;
15655;SDS011;7928;43.614;1.456;2023-03-01T03:08:14;10.23;;;6.53;;
15655;SDS011;7928;43.614;1.456;2023-03-01T03:10:48;10.47;;;7.47;;
15655;SDS011;7928;43.614;1.456;2023-03-01T03:13:15;11.00;;;7.30;;
15655;SDS011;7928;43.614;1.456;2023-03-01T03:15:44;12.07;;;7.70;;
15655;SDS011;7928;43.614;1.456;2023-03-01T03:18:12;10.47;;;7.07;;
15655;SDS011;7928;43.614;1.456;2023-03-01T03:20:42;9.33;;;7.60;;
15655;SDS011;7928;43.614;1.456;2023-03-01T03:23:10;10.30;;;7.10;;
15655;SDS011;7928;43.614;1.456;2023-03-01T03:25:37;11.77;;;6.93;;
15655;SDS011;7928;43.614;1.456;2023-03-01T03:28:04;9.40;;;7.03;;
15655;SDS011;7928;43.614;1.456;2023-03-01T03:30:35;9.60;;;7.17;;
15655;SDS011;7928;43.614;1.456;2023-03-01T03:33:04;11.73;;;7.33;;
15655;SDS011;7928;43.614;1.456;2023-03-01T03:35:32;11.33;;;8.10;;
15655;SDS011;7928;43.614;1.456;2023-03-01T03:38:06;11.37;;;8.43;;
15655;SDS011;7928;43.614;1.456;2023-03-01T03:40:40;9.73;;;7.73;;
15655;SDS011;7928;43.614;1.456;2023-03-01T03:43:09;12.00;;;8.23;;
15655;SDS011;7928;43.614;1.456;2023-03-01T03:45:37;12.77;;;7.60;;
15655;SDS011;7928;43.614;1.456;2023-03-01T03:48:05;10.53;;;8.10;;
15655;SDS011;7928;43.614;1.456;2023-03-01T03:50:34;9.63;;;7.20;;
15655;SDS011;7928;43.614;1.456;2023-03-01T03:53:02;11.00;;;8.40;;
15655;SDS011;7928;43.614;1.456;2023-03-01T03:55:32;9.23;;;7.87;;
15655;SDS011;7928;43.614;1.456;2023-03-01T03:58:00;10.90;;;7.90;;
15655;SDS011;7928;43.614;1.456;2023-03-01T04:00:32;9.83;;;7.30;;
15655;SDS011;7928;43.614;1.456;2023-03-01T04:03:00;10.10;;;7.90;;
15655;SDS011;7928;43.614;1.456;2023-03-01T04:05:27;9.97;;;7.47;;
15655;SDS011;7928;43.614;1.456;2023-03-01T04:07:54;11.40;;;7.43;;
15655;SDS011;7928;43.614;1.456;2023-03-01T04:10:27;10.83;;;8.27;;
15655;SDS011;7928;43.614;1.456;2023-03-01T04:12:56;10.53;;;7.80;;
15655;SDS011;7928;43.614;1.456;2023-03-01T04:15:24;10.13;;;8.00;;
15655;SDS011;7928;43.614;1.456;2023-03-01T04:17:52;12.23;;;7.57;;
15655;SDS011;7928;43.614;1.456;2023-03-01T04:20:21;10.40;;;7.73;;
15655;SDS011;7928;43.614;1.456;2023-03-01T04:22:50;10.97;;;7.70;;
15655;SDS011;7928;43.614;1.456;2023-03-01T04:25:19;12.43;;;8.57;;
15655;SDS011;7928;43.614;1.456;2023-03-01T04:27:46;11.83;;;8.60;;
15655;SDS011;7928;43.614;1.456;2023-03-01T04:30:14;13.43;;;9.30;;
15655;SDS011;7928;43.614;1.456;2023-03-01T04:32:42;13.50;;;8.33;;
15655;SDS011;7928;43.614;1.456;2023-03-01T04:35:09;12.40;;;8.07;;
15655;SDS011;7928;43.614;1.456;2023-03-01T04:37:36;13.33;;;8.97;;
15655;SDS011;7928;43.614;1.456;2023-03-01T04:40:03;11.93;;;8.90;;
15655;SDS011;7928;43.614;1.456;2023-03-01T04:42:41;13.13;;;8.83;;
15655;SDS011;7928;43.614;1.456;2023-03-01T04:45:08;15.13;;;8.90;;
15655;SDS011;7928;43.614;1.456;2023-03-01T04:47:39;13.00;;;9.07;;
15655;SDS011;7928;43.614;1.456;2023-03-01T04:50:08;16.70;;;10.10;;
15655;SDS011;7928;43.614;1.456;2023-03-01T04:52:36;17.13;;;9.90;;
15655;SDS011;7928;43.614;1.456;2023-03-01T04:55:04;15.13;;;9.90;;
15655;SDS011;7928;43.614;1.456;2023-03-01T04:57:32;12.40;;;8.87;;
15655;SDS011;7928;43.614;1.456;2023-03-01T04:59:59;14.47;;;9.83;;
15655;SDS011;7928;43.614;1.456;2023-03-01T05:02:26;15.80;;;10.10;;
15655;SDS011;7928;43.614;1.456;2023-03-01T05:04:55;15.73;;;9.13;;
15655;SDS011;7928;43.614;1.456;2023-03-01T05:07:23;15.47;;;9.07;;
15655;SDS011;7928;43.614;1.456;2023-03-01T05:09:51;11.93;;;8.67;;
15655;SDS011;7928;43.614;1.456;2023-03-01T05:12:19;12.83;;;9.00;;
15655;SDS011;7928;43.614;1.456;2023-03-01T05:14:46;10.97;;;8.87;;
15655;SDS011;7928;43.614;1.456;2023-03-01T05:17:13;12.23;;;9.07;;
15655;SDS011;7928;43.614;1.456;2023-03-01T05:19:40;13.70;;;9.07;;
15655;SDS011;7928;43.614;1.456;2023-03-01T05:22:09;12.13;;;9.10;;
15655;SDS011;7928;43.614;1.456;2023-03-01T05:24:36;11.93;;;8.83;;
15655;SDS011;7928;43.614;1.456;2023-03-01T05:27:03;12.70;;;9.00;;
15655;SDS011;7928;43.614;1.456;2023-03-01T05:29:31;14.87;;;9.23;;
15655;SDS011;7928;43.614;1.456;2023-03-01T05:32:00;11.20;;;8.47;;
15655;SDS011;7928;43.614;1.456;2023-03-01T05:34:29;17.97;;;10.23;;
15655;SDS011;7928;43.614;1.456;2023-03-01T05:36:57;11.40;;;8.70;;
15655;SDS011;7928;43.614;1.456;2023-03-01T05:39:26;16.10;;;9.57;;
15655;SDS011;7928;43.614;1.456;2023-03-01T05:41:55;13.70;;;9.17;;
15655;SDS011;7928;43.614;1.456;2023-03-01T05:44:24;15.10;;;9.50;;
15655;SDS011;7928;43.614;1.456;2023-03-01T05:46:51;12.63;;;9.07;;
15655;SDS011;7928;43.614;1.456;2023-03-01T05:49:18;12.93;;;9.27;;
15655;SDS011;7928;43.614;1.456;2023-03-01T05:51:47;12.30;;;9.60;;
15655;SDS011;7928;43.614;1.456;2023-03-01T05:54:15;11.93;;;8.63;;
15655;SDS011;7928;43.614;1.456;2023-03-01T05:56:44;11.77;;;8.37;;
15655;SDS011;7928;43.614;1.456;2023-03-01T05:59:12;13.90;;;9.80;;
15655;SDS011;7928;43.614;1.456;2023-03-01T06:01:41;14.93;;;9.00;;
15655;SDS011;7928;43.614;1.456;2023-03-01T06:04:08;14.17;;;8.77;;
15655;SDS011;7928;43.614;1.456;2023-03-01T06:06:36;12.50;;;9.07;;
15655;SDS011;7928;43.614;1.456;2023-03-01T06:09:03;11.33;;;9.27;;
15655;SDS011;7928;43.614;1.456;2023-03-01T06:11:33;11.13;;;8.70;;
15655;SDS011;7928;43.614;1.456;2023-03-01T06:14:01;14.43;;;9.47;;
15655;SDS011;7928;43.614;1.456;2023-03-01T06:16:29;12.67;;;9.77;;
15655;SDS011;7928;43.614;1.456;2023-03-01T06:18:56;11.70;;;8.67;;
15655;SDS011;7928;43.614;1.456;2023-03-01T06:21:23;16.40;;;10.23;;
15655;SDS011;7928;43.614;1.456;2023-03-01T06:23:50;11.53;;;9.07;;
15655;SDS011;7928;43.614;1.456;2023-03-01T06:26:17;14.77;;;9.03;;
15655;SDS011;7928;43.614;1.456;2023-03-01T06:28:44;11.90;;;9.07;;
15655;SDS011;7928;43.614;1.456;2023-03-01T06:31:13;16.27;;;9.60;;
15655;SDS011;7928;43.614;1.456;2023-03-01T06:33:40;12.90;;;9.00;;
15655;SDS011;7928;43.614;1.456;2023-03-01T06:36:07;12.37;;;8.93;;
15655;SDS011;7928;43.614;1.456;2023-03-01T06:38:35;11.97;;;8.53;;
15655;SDS011;7928;43.614;1.456;2023-03-01T06:41:02;13.60;;;9.00;;
15655;SDS011;7928;43.614;1.456;2023-03-01T06:43:29;12.97;;;9.07;;
15655;SDS011;7928;43.614;1.456;2023-03-01T06:45:56;17.97;;;9.40;;
15655;SDS011;7928;43.614;1.456;2023-03-01T06:48:25;12.70;;;9.07;;
15655;SDS011;7928;43.614;1.456;2023-03-01T06:50:52;11.57;;;8.83;;
15655;SDS011;7928;43.614;1.456;2023-03-01T06:53:19;13.37;;;10.10;;
15655;SDS011;7928;43.614;1.456;2023-03-01T06:55:46;14.37;;;9.87;;
15655;SDS011;7928;43.614;1.456;2023-03-01T06:58:12;13.20;;;9.40;;
15655;SDS011;7928;43.614;1.456;2023-03-01T07:00:39;17.00;;;10.40;;
15655;SDS011;7928;43.614;1.456;2023-03-01T07:03:08;14.37;;;9.23;;
15655;SDS011;7928;43.614;1.456;2023-03-01T07:05:36;16.27;;;9.60;;
15655;SDS011;7928;43.614;1.456;2023-03-01T07:08:03;13.80;;;9.87;;
15655;SDS011;7928;43.614;1.456;2023-03-01T07:10:30;15.87;;;10.47;;
15655;SDS011;7928;43.614;1.456;2023-03-01T07:12:58;14.57;;;10.47;;
15655;SDS011;7928;43.614;1.456;2023-03-01T07:15:25;18.37;;;11.93;;
15655;SDS011;7928;43.614;1.456;2023-03-01T07:17:53;19.43;;;11.97;;
15655;SDS011;7928;43.614;1.456;2023-03-01T07:20:20;20.17;;;14.27;;
15655;SDS011;7928;43.614;1.456;2023-03-01T07:22:50;23.47;;;13.03;;
15655;SDS011;7928;43.614;1.456;2023-03-01T07:25:18;18.13;;;13.30;;
15655;SDS011;7928;43.614;1.456;2023-03-01T07:27:48;19.43;;;13.70;;
15655;SDS011;7928;43.614;1.456;2023-03-01T07:30:16;19.53;;;13.07;;
15655;SDS011;7928;43.614;1.456;2023-03-01T07:32:43;21.40;;;13.67;;
15655;SDS011;7928;43.614;1.456;2023-03-01T07:35:10;20.27;;;14.50;;
15655;SDS011;7928;43.614;1.456;2023-03-01T07:37:37;19.30;;;13.87;;
15655;SDS011;7928;43.614;1.456;2023-03-01T07:40:07;22.47;;;13.93;;
15655;SDS011;7928;43.614;1.456;2023-03-01T07:42:35;23.90;;;14.40;;
15655;SDS011;7928;43.614;1.456;2023-03-01T07:45:02;23.07;;;14.40;;
15655;SDS011;7928;43.614;1.456;2023-03-01T07:47:30;22.20;;;12.67;;
15655;SDS011;7928;43.614;1.456;2023-03-01T07:49:57;19.03;;;12.23;;
15655;SDS011;7928;43.614;1.456;2023-03-01T07:52:24;11.10;;;9.03;;
15655;SDS011;7928;43.614;1.456;2023-03-01T07:54:51;12.83;;;10.67;;
15655;SDS011;7928;43.614;1.456;2023-03-01T07:57:19;14.30;;;10.27;;
15655;SDS011;7928;43.614;1.456;2023-03-01T07:59:46;15.87;;;11.37;;
15655;SDS011;7928;43.614;1.456;2023-03-01T08:02:13;15.47;;;10.27;;
15655;SDS011;7928;43.614;1.456;2023-03-01T08:04:40;13.57;;;9.90;;
15655;SDS011;7928;43.614;1.456;2023-03-01T08:07:07;14.10;;;9.37;;
15655;SDS011;7928;43.614;1.456;2023-03-01T08:09:35;15.13;;;9.90;;
15655;SDS011;7928;43.614;1.456;2023-03-01T08:12:03;14.90;;;10.30;;
15655;SDS011;7928;43.614;1.456;2023-03-01T08:14:32;13.27;;;9.87;;
15655;SDS011;7928;43.614;1.456;2023-03-01T08:16:59;15.10;;;10.07;;
15655;SDS011;7928;43.614;1.456;2023-03-01T08:19:28;13.50;;;10.10;;
15655;SDS011;7928;43.614;1.456;2023-03-01T08:21:55;16.97;;;10.53;;
15655;SDS011;7928;43.614;1.456;2023-03-01T08:24:23;16.63;;;11.20;;
15655;SDS011;7928;43.614;1.456;2023-03-01T08:26:50;17.23;;;10.17;;
15655;SDS011;7928;43.614;1.456;2023-03-01T08:29:17;17.33;;;11.40;;
15655;SDS011;7928;43.614;1.456;2023-03-01T08:31:45;15.23;;;10.23;;
15655;SDS011;7928;43.614;1.456;2023-03-01T08:34:13;11.10;;;9.50;;
15655;SDS011;7928;43.614;1.456;2023-03-01T08:36:42;11.13;;;9.10;;
15655;SDS011;7928;43.614;1.456;2023-03-01T08:39:11;14.30;;;8.93;;
15655;SDS011;7928;43.614;1.456;2023-03-01T08:41:40;14.10;;;9.33;;
15655;SDS011;7928;43.614;1.456;2023-03-01T08:44:08;12.53;;;9.20;;
15655;SDS011;7928;43.614;1.456;2023-03-01T08:46:37;12.77;;;9.10;;
15655;SDS011;7928;43.614;1.456;2023-03-01T08:49:07;11.17;;;9.47;;
15655;SDS011;7928;43.614;1.456;2023-03-01T08:51:35;11.90;;;8.97;;
15655;SDS011;7928;43.614;1.456;2023-03-01T08:54:03;13.53;;;9.37;;
15655;SDS011;7928;43.614;1.456;2023-03-01T08:56:30;13.87;;;9.23;;
15655;SDS011;7928;43.614;1.456;2023-03-01T08:58:57;12.93;;;8.93;;
15655;SDS011;7928;43.614;1.456;2023-03-01T09:01:24;18.60;;;9.90;;
15655;SDS011;7928;43.614;1.456;2023-03-01T09:03:51;13.30;;;9.70;;
15655;SDS011;7928;43.614;1.456;2023-03-01T09:06:19;13.50;;;10.00;;
15655;SDS011;7928;43.614;1.456;2023-03-01T09:08:47;13.77;;;8.80;;
15655;SDS011;7928;43.614;1.456;2023-03-01T09:11:17;11.40;;;9.23;;
15655;SDS011;7928;43.614;1.456;2023-03-01T09:13:45;13.23;;;10.07;;
15655;SDS011;7928;43.614;1.456;2023-03-01T09:16:14;11.40;;;9.07;;
15655;SDS011;7928;43.614;1.456;2023-03-01T09:18:42;10.10;;;8.67;;
15655;SDS011;7928;43.614;1.456;2023-03-01T09:21:12;12.00;;;8.70;;
15655;SDS011;7928;43.614;1.456;2023-03-01T09:23:42;17.93;;;10.43;;
15655;SDS011;7928;43.614;1.456;2023-03-01T09:26:12;12.43;;;9.03;;
15655;SDS011;7928;43.614;1.456;2023-03-01T09:28:42;11.10;;;8.73;;
15655;SDS011;7928;43.614;1.456;2023-03-01T09:31:10;11.20;;;8.33;;
15655;SDS011;7928;43.614;1.456;2023-03-01T09:33:39;10.63;;;8.67;;
15655;SDS011;7928;43.614;1.456;2023-03-01T09:36:07;14.30;;;7.80;;
15655;SDS011;7928;43.614;1.456;2023-03-01T09:38:38;8.73;;;7.13;;
15655;SDS011;7928;43.614;1.456;2023-03-01T09:41:10;9.13;;;6.83;;
15655;SDS011;7928;43.614;1.456;2023-03-01T09:43:46;7.50;;;6.70;;
15655;SDS011;7928;43.614;1.456;2023-03-01T09:46:19;10.67;;;7.80;;
15655;SDS011;7928;43.614;1.456;2023-03-01T09:48:49;7.83;;;6.70;;
15655;SDS011;7928;43.614;1.456;2023-03-01T09:51:19;7.47;;;6.00;;
15655;SDS011;7928;43.614;1.456;2023-03-01T09:53:53;8.73;;;7.03;;
15655;SDS011;7928;43.614;1.456;2023-03-01T09:56:24;6.90;;;6.17;;
15655;SDS011;7928;43.614;1.456;2023-03-01T09:58:59;8.60;;;6.57;;
15655;SDS011;7928;43.614;1.456;2023-03-01T10:01:35;7.80;;;5.83;;
15655;SDS011;7928;43.614;1.456;2023-03-01T10:04:19;6.90;;;6.20;;
15655;SDS011;7928;43.614;1.456;2023-03-01T10:07:04;8.50;;;6.57;;
15655;SDS011;7928;43.614;1.456;2023-03-01T10:09:44;9.17;;;6.10;;
15655;SDS011;7928;43.614;1.456;2023-03-01T10:12:14;6.43;;;5.60;;
15655;SDS011;7928;43.614;1.456;2023-03-01T10:14:44;7.57;;;6.63;;
15655;SDS011;7928;43.614;1.456;2023-03-01T10:17:24;7.27;;;6.37;;
15655;SDS011;7928;43.614;1.456;2023-03-01T10:19:54;6.83;;;5.63;;
15655;SDS011;7928;43.614;1.456;2023-03-01T10:22:24;7.30;;;5.80;;
15655;SDS011;7928;43.614;1.456;2023-03-01T10:24:54;7.30;;;5.83;;
15655;SDS011;7928;43.614;1.456;2023-03-01T10:27:25;6.33;;;5.73;;
15655;SDS011;7928;43.614;1.456;2023-03-01T10:30:02;7.37;;;5.87;;
15655;SDS011;7928;43.614;1.456;2023-03-01T10:32:37;9.13;;;5.97;;
15655;SDS011;7928;43.614;1.456;2023-03-01T10:35:15;8.43;;;5.67;;
15655;SDS011;7928;43.614;1.456;2023-03-01T10:37:46;15.57;;;5.80;;
15655;SDS011;7928;43.614;1.456;2023-03-01T10:40:24;6.57;;;5.80;;
15655;SDS011;7928;43.614;1.456;2023-03-01T10:42:52;7.30;;;5.40;;
15655;SDS011;7928;43.614;1.456;2023-03-01T10:45:27;6.27;;;5.53;;
15655;SDS011;7928;43.614;1.456;2023-03-01T10:48:03;8.30;;;5.27;;
15655;SDS011;7928;43.614;1.456;2023-03-01T10:50:31;6.50;;;5.87;;
15655;SDS011;7928;43.614;1.456;2023-03-01T10:53:18;5.47;;;4.97;;
15655;SDS011;7928;43.614;1.456;2023-03-01T10:55:56;8.67;;;5.23;;
15655;SDS011;7928;43.614;1.456;2023-03-01T10:58:27;6.80;;;6.10;;
15655;SDS011;7928;43.614;1.456;2023-03-01T11:00:55;6.83;;;5.87;;
15655;SDS011;7928;43.614;1.456;2023-03-01T11:03:24;6.10;;;5.57;;
15655;SDS011;7928;43.614;1.456;2023-03-01T11:05:54;5.93;;;5.40;;
15655;SDS011;7928;43.614;1.456;2023-03-01T11:08:30;6.23;;;5.23;;
15655;SDS011;7928;43.614;1.456;2023-03-01T11:11:07;5.57;;;5.07;;
15655;SDS011;7928;43.614;1.456;2023-03-01T11:13:50;6.10;;;5.50;;
15655;SDS011;7928;43.614;1.456;2023-03-01T11:16:23;7.27;;;6.57;;
15655;SDS011;7928;43.614;1.456;2023-03-01T11:18:56;6.30;;;5.80;;
15655;SDS011;7928;43.614;1.456;2023-03-01T11:21:24;6.13;;;5.60;;
15655;SDS011;7928;43.614;1.456;2023-03-01T11:23:54;6.53;;;5.93;;
15655;SDS011;7928;43.614;1.456;2023-03-01T11:26:22;6.43;;;5.83;;
15655;SDS011;7928;43.614;1.456;2023-03-01T11:28:53;6.83;;;6.13;;
15655;SDS011;7928;43.614;1.456;2023-03-01T11:31:24;6.30;;;5.70;;
15655;SDS011;7928;43.614;1.456;2023-03-01T11:33:53;5.97;;;5.47;;
15655;SDS011;7928;43.614;1.456;2023-03-01T11:36:35;6.23;;;5.07;;
15655;SDS011;7928;43.614;1.456;2023-03-01T11:39:12;5.77;;;5.27;;
15655;SDS011;7928;43.614;1.456;2023-03-01T11:41:50;5.40;;;4.90;;
15655;SDS011;7928;43.614;1.456;2023-03-01T11:44:29;5.20;;;4.80;;
15655;SDS011;7928;43.614;1.456;2023-03-01T11:50:01;6.20;;;5.63;;
15655;SDS011;7928;43.614;1.456;2023-03-01T11:52:46;5.27;;;4.87;;
15655;SDS011;7928;43.614;1.456;2023-03-01T11:55:29;5.80;;;5.30;;
15655;SDS011;7928;43.614;1.456;2023-03-01T11:58:11;5.00;;;4.50;;
15655;SDS011;7928;43.614;1.456;2023-03-01T12:00:56;4.82;;;4.43;;
15655;SDS011;7928;43.614;1.456;2023-03-01T12:03:42;4.85;;;4.45;;
15655;SDS011;7928;43.614;1.456;2023-03-01T12:06:39;5.07;;;3.92;;
15655;SDS011;7928;43.614;1.456;2023-03-01T12:09:23;4.70;;;4.10;;
15655;SDS011;7928;43.614;1.456;2023-03-01T12:12:03;4.57;;;4.18;;
15655;SDS011;7928;43.614;1.456;2023-03-01T12:15:03;5.05;;;4.70;;
15655;SDS011;7928;43.614;1.456;2023-03-01T12:20:42;4.93;;;4.50;;
15655;SDS011;7928;43.614;1.456;2023-03-01T12:23:31;4.78;;;4.30;;
15655;SDS011;7928;43.614;1.456;2023-03-01T12:26:08;5.00;;;4.55;;
15655;SDS011;7928;43.614;1.456;2023-03-01T12:28:44;4.55;;;4.13;;
15655;SDS011;7928;43.614;1.456;2023-03-01T12:31:28;4.80;;;4.40;;
15655;SDS011;7928;43.614;1.456;2023-03-01T12:34:24;4.80;;;4.40;;
15655;SDS011;7928;43.614;1.456;2023-03-01T12:37:25;5.10;;;4.05;;
15655;SDS011;7928;43.614;1.456;2023-03-01T12:40:02;4.95;;;4.55;;
15655;SDS011;7928;43.614;1.456;2023-03-01T12:42:42;4.80;;;4.40;;
15655;SDS011;7928;43.614;1.456;2023-03-01T12:45:30;7.32;;;4.80;;
15655;SDS011;7928;43.614;1.456;2023-03-01T12:48:17;5.07;;;4.57;;
15655;SDS011;7928;43.614;1.456;2023-03-01T12:51:02;4.97;;;4.47;;
15655;SDS011;7928;43.614;1.456;2023-03-01T12:53:34;5.18;;;4.35;;
15655;SDS011;7928;43.614;1.456;2023-03-01T12:56:05;5.20;;;4.70;;
15655;SDS011;7928;43.614;1.456;2023-03-01T12:58:38;4.72;;;4.32;;
15655;SDS011;7928;43.614;1.456;2023-03-01T13:01:18;5.22;;;4.80;;
15655;SDS011;7928;43.614;1.456;2023-03-01T13:07:18;4.93;;;4.43;;
15655;SDS011;7928;43.614;1.456;2023-03-01T13:09:55;4.97;;;4.57;;
15655;SDS011;7928;43.614;1.456;2023-03-01T13:12:46;5.03;;;4.63;;
15655;SDS011;7928;43.614;1.456;2023-03-01T13:15:28;4.75;;;4.35;;
15655;SDS011;7928;43.614;1.456;2023-03-01T13:18:00;5.57;;;5.07;;
15655;SDS011;7928;43.614;1.456;2023-03-01T13:20:33;4.55;;;4.20;;
15655;SDS011;7928;43.614;1.456;2023-03-01T13:23:11;5.33;;;4.83;;
15655;SDS011;7928;43.614;1.456;2023-03-01T13:28:49;5.17;;;4.57;;
15655;SDS011;7928;43.614;1.456;2023-03-01T13:34:47;4.43;;;4.13;;
15655;SDS011;7928;43.614;1.456;2023-03-01T13:37:20;4.45;;;4.00;;
15655;SDS011;7928;43.614;1.456;2023-03-01T13:39:54;4.63;;;4.20;;
15655;SDS011;7928;43.614;1.456;2023-03-01T13:42:41;4.60;;;4.20;;
15655;SDS011;7928;43.614;1.456;2023-03-01T13:45:24;4.67;;;4.27;;
15655;SDS011;7928;43.614;1.456;2023-03-01T13:48:01;8.30;;;4.40;;
15655;SDS011;7928;43.614;1.456;2023-03-01T13:50:36;5.10;;;4.60;;
15655;SDS011;7928;43.614;1.456;2023-03-01T13:53:10;4.70;;;4.30;;
15655;SDS011;7928;43.614;1.456;2023-03-01T13:55:42;5.00;;;4.50;;
15655;SDS011;7928;43.614;1.456;2023-03-01T13:58:18;4.87;;;4.47;;
15655;SDS011;7928;43.614;1.456;2023-03-01T14:00:54;4.72;;;4.32;;
15655;SDS011;7928;43.614;1.456;2023-03-01T14:03:22;5.05;;;4.63;;
15655;SDS011;7928;43.614;1.456;2023-03-01T14:06:00;4.80;;;4.38;;
15655;SDS011;7928;43.614;1.456;2023-03-01T14:08:31;4.60;;;4.20;;
15655;SDS011;7928;43.614;1.456;2023-03-01T14:11:15;5.23;;;4.83;;
15655;SDS011;7928;43.614;1.456;2023-03-01T14:20:17;5.20;;;4.70;;
15655;SDS011;7928;43.614;1.456;2023-03-01T14:22:46;5.53;;;5.03;;
15655;SDS011;7928;43.614;1.456;2023-03-01T14:25:21;5.00;;;4.60;;
15655;SDS011;7928;43.614;1.456;2023-03-01T14:27:51;5.55;;;5.05;;
15655;SDS011;7928;43.614;1.456;2023-03-01T14:30:24;6.50;;;5.87;;
15655;SDS011;7928;43.614;1.456;2023-03-01T14:32:53;5.03;;;4.63;;
15655;SDS011;7928;43.614;1.456;2023-03-01T14:35:23;5.10;;;4.60;;
15655;SDS011;7928;43.614;1.456;2023-03-01T14:37:51;5.07;;;4.57;;
15655;SDS011;7928;43.614;1.456;2023-03-01T14:40:23;5.17;;;4.77;;
15655;SDS011;7928;43.614;1.456;2023-03-01T14:42:51;9.33;;;5.40;;
15655;SDS011;7928;43.614;1.456;2023-03-01T14:45:20;5.53;;;5.03;;
15655;SDS011;7928;43.614;1.456;2023-03-01T14:47:48;4.83;;;4.40;;
15655;SDS011;7928;43.614;1.456;2023-03-01T14:50:18;5.57;;;5.07;;
15655;SDS011;7928;43.614;1.456;2023-03-01T14:52:50;6.73;;;4.83;;
15655;SDS011;7928;43.614;1.456;2023-03-01T14:55:20;5.60;;;5.10;;
15655;SDS011;7928;43.614;1.456;2023-03-01T14:57:51;6.37;;;4.90;;
15655;SDS011;7928;43.614;1.456;2023-03-01T15:00:19;5.03;;;4.40;;
15655;SDS011;7928;43.614;1.456;2023-03-01T15:02:50;8.33;;;4.53;;
15655;SDS011;7928;43.614;1.456;2023-03-01T15:05:18;5.40;;;4.90;;
15655;SDS011;7928;43.614;1.456;2023-03-01T15:07:51;4.43;;;4.03;;
15655;SDS011;7928;43.614;1.456;2023-03-01T15:10:20;4.63;;;4.30;;
15655;SDS011;7928;43.614;1.456;2023-03-01T15:12:49;4.80;;;4.40;;
15655;SDS011;7928;43.614;1.456;2023-03-01T15:15:22;5.20;;;4.70;;
15655;SDS011;7928;43.614;1.456;2023-03-01T15:17:59;4.33;;;4.00;;
15655;SDS011;7928;43.614;1.456;2023-03-01T15:20:29;4.87;;;4.47;;
15655;SDS011;7928;43.614;1.456;2023-03-01T15:23:00;4.33;;;4.00;;
15655;SDS011;7928;43.614;1.456;2023-03-01T15:25:29;8.40;;;4.57;;
15655;SDS011;7928;43.614;1.456;2023-03-01T15:27:59;5.63;;;4.50;;
15655;SDS011;7928;43.614;1.456;2023-03-01T15:30:29;4.43;;;4.03;;
15655;SDS011;7928;43.614;1.456;2023-03-01T15:33:29;4.20;;;3.80;;
15655;SDS011;7928;43.614;1.456;2023-03-01T15:35:58;4.40;;;4.00;;
15655;SDS011;7928;43.614;1.456;2023-03-01T15:38:28;4.53;;;4.13;;